createdAt,value
2022-10-25T00:02:37.485Z,14.59
2022-10-25T00:05:42.532Z,14.55
2022-10-25T00:08:45.268Z,14.51
2022-10-25T00:11:48.057Z,14.45
2022-10-25T00:14:50.703Z,14.38
2022-10-25T00:17:54.874Z,14.37
2022-10-25T00:20:58.764Z,14.36
2022-10-25T00:24:01.398Z,14.32
2022-10-25T00:27:04.153Z,14.32
2022-10-25T00:30:08.637Z,14.28
2022-10-25T00:33:12.742Z,14.23
2022-10-25T00:36:17.826Z,14.21
2022-10-25T00:39:20.447Z,14.21
2022-10-25T00:42:25.875Z,14.19
2022-10-25T00:45:29.536Z,14.16
2022-10-25T00:48:34.422Z,14.15
2022-10-25T00:51:40.871Z,14.11
2022-10-25T00:54:48.500Z,14.08
2022-10-25T00:57:57.856Z,14.07
2022-10-25T01:01:00.613Z,14.06
2022-10-25T01:04:09.515Z,14.05
2022-10-25T01:07:12.838Z,14.02
2022-10-25T01:10:16.238Z,14.03
2022-10-25T01:13:19.531Z,14.03
2022-10-25T01:16:29.353Z,14.07
2022-10-25T01:19:52.312Z,14.14
2022-10-25T01:23:04.300Z,14.16
2022-10-25T01:26:33.069Z,14.21
2022-10-25T01:30:00.622Z,14.27
2022-10-25T01:33:17.886Z,14.30
2022-10-25T01:36:30.460Z,14.37
2022-10-25T01:39:37.660Z,14.38
2022-10-25T01:42:50.110Z,14.43
2022-10-25T01:46:01.709Z,14.44
2022-10-25T01:49:10.077Z,14.52
2022-10-25T01:52:12.897Z,14.55
2022-10-25T01:55:16.640Z,14.58
2022-10-25T01:58:31.684Z,14.60
2022-10-25T02:01:42.511Z,14.65
2022-10-25T02:04:54.820Z,14.68
2022-10-25T02:08:05.988Z,14.67
2022-10-25T02:11:20.089Z,14.69
2022-10-25T02:14:28.450Z,14.73
2022-10-25T02:17:34.769Z,14.73
2022-10-25T02:20:41.818Z,14.72
2022-10-25T02:23:50.144Z,14.78
2022-10-25T02:26:54.365Z,14.79
2022-10-25T02:29:58.017Z,14.81
2022-10-25T02:33:00.709Z,14.82
2022-10-25T02:36:09.362Z,14.93
2022-10-25T02:39:12.076Z,14.93
2022-10-25T02:42:14.701Z,14.91
2022-10-25T02:45:17.453Z,14.88
2022-10-25T02:48:20.108Z,14.87
2022-10-25T02:51:24.610Z,14.93
2022-10-25T02:54:27.243Z,14.93
2022-10-25T02:57:34.083Z,14.93
2022-10-25T03:00:36.728Z,14.92
2022-10-25T03:03:39.717Z,14.93
2022-10-25T03:06:43.705Z,14.94
2022-10-25T03:09:46.478Z,14.94
2022-10-25T03:12:49.347Z,14.93
2022-10-25T03:15:52.198Z,14.95
2022-10-25T03:18:57.907Z,14.96
2022-10-25T03:22:02.081Z,14.93
2022-10-25T03:25:05.321Z,14.92
2022-10-25T03:28:08.281Z,14.98
2022-10-25T03:31:12.617Z,14.93
2022-10-25T03:34:15.258Z,14.93
2022-10-25T03:37:19.231Z,14.92
2022-10-25T03:40:23.357Z,14.93
2022-10-25T03:43:26.069Z,15.05
2022-10-25T03:46:28.843Z,15.01
2022-10-25T03:49:31.650Z,15.01
2022-10-25T03:52:35.872Z,14.94
2022-10-25T03:55:38.788Z,14.87
2022-10-25T03:58:41.632Z,14.97
2022-10-25T04:01:44.583Z,14.96
2022-10-25T04:04:47.621Z,14.94
2022-10-25T04:07:51.740Z,14.99
2022-10-25T04:10:54.377Z,15.00
2022-10-25T04:14:07.942Z,15.03
2022-10-25T04:17:26.045Z,15.13
2022-10-25T04:20:28.673Z,15.10
2022-10-25T04:23:32.814Z,14.92
2022-10-25T04:26:36.911Z,14.96
2022-10-25T04:29:39.748Z,15.04
2022-10-25T04:32:42.370Z,15.07
2022-10-25T04:35:45.590Z,14.95
2022-10-25T04:38:50.207Z,14.89
2022-10-25T04:41:53.314Z,14.82
2022-10-25T04:44:55.929Z,14.80
2022-10-25T04:47:58.792Z,14.78
2022-10-25T04:51:01.814Z,14.75
2022-10-25T04:54:05.901Z,14.73
2022-10-25T04:57:08.636Z,14.80
2022-10-25T05:00:12.541Z,14.85
2022-10-25T05:03:15.298Z,14.75
2022-10-25T05:06:19.953Z,14.78
2022-10-25T05:09:24.350Z,14.69
2022-10-25T05:12:27.039Z,14.74
2022-10-25T05:15:29.822Z,14.68
2022-10-25T05:18:33.233Z,14.58
2022-10-25T05:21:35.882Z,14.59
2022-10-25T05:24:40.002Z,14.62
2022-10-25T05:27:42.705Z,14.61
2022-10-25T05:30:45.540Z,14.53
2022-10-25T05:33:51.426Z,14.51
2022-10-25T05:36:54.095Z,14.56
2022-10-25T05:39:58.305Z,14.56
2022-10-25T05:43:01.151Z,14.62
2022-10-25T05:46:06.258Z,14.64
2022-10-25T05:49:09.212Z,14.72
2022-10-25T05:52:12.335Z,14.69
2022-10-25T05:55:16.580Z,14.75
2022-10-25T05:58:19.193Z,14.74
2022-10-25T06:01:23.356Z,14.77
2022-10-25T06:04:26.242Z,14.74
2022-10-25T06:07:28.958Z,14.89
2022-10-25T06:10:33.133Z,14.85
2022-10-25T06:13:36.694Z,14.74
2022-10-25T06:16:39.888Z,14.80
2022-10-25T06:19:42.531Z,14.79
2022-10-25T06:22:45.484Z,14.85
2022-10-25T06:25:49.782Z,14.95
2022-10-25T06:28:54.688Z,14.92
2022-10-25T06:31:57.486Z,14.94
2022-10-25T06:35:00.304Z,14.94
2022-10-25T06:38:03.094Z,14.99
2022-10-25T06:41:08.713Z,14.95
2022-10-25T06:44:11.500Z,14.87
2022-10-25T06:47:18.164Z,14.96
2022-10-25T06:50:21.095Z,15.07
2022-10-25T06:53:23.762Z,14.93
2022-10-25T06:56:29.135Z,14.93
2022-10-25T06:59:31.772Z,14.95
2022-10-25T07:02:34.468Z,14.99
2022-10-25T07:05:37.343Z,14.95
2022-10-25T07:08:42.600Z,15.05
2022-10-25T07:11:46.676Z,15.14
2022-10-25T07:14:49.341Z,15.21
2022-10-25T07:17:51.946Z,15.25
2022-10-25T07:20:59.976Z,15.30
2022-10-25T07:24:02.939Z,15.24
2022-10-25T07:27:07.113Z,15.15
2022-10-25T07:30:10.914Z,15.00
2022-10-25T07:33:14.408Z,14.87
2022-10-25T07:36:17.450Z,14.98
2022-10-25T07:39:20.201Z,15.08
2022-10-25T07:42:24.434Z,15.02
2022-10-25T07:45:30.390Z,14.98
2022-10-25T07:48:34.801Z,14.96
2022-10-25T07:51:37.603Z,14.92
2022-10-25T07:54:40.802Z,14.99
2022-10-25T07:57:45.117Z,15.05
2022-10-25T08:00:48.439Z,15.13
2022-10-25T08:03:51.476Z,15.05
2022-10-25T08:06:54.292Z,15.02
2022-10-25T08:09:56.983Z,15.09
2022-10-25T08:13:01.299Z,15.11
2022-10-25T08:16:04.082Z,15.21
2022-10-25T08:19:06.986Z,15.25
2022-10-25T08:22:10.236Z,15.17
2022-10-25T08:25:13.056Z,15.12
2022-10-25T08:28:17.043Z,15.21
2022-10-25T08:31:19.949Z,15.29
2022-10-25T08:34:22.769Z,15.34
2022-10-25T08:37:25.363Z,15.32
2022-10-25T08:40:38.289Z,15.42
2022-10-25T08:44:17.281Z,15.70
2022-10-25T08:47:25.177Z,15.71
2022-10-25T08:50:36.746Z,15.66
2022-10-25T08:53:43.740Z,15.60
2022-10-25T08:57:03.454Z,15.72
2022-10-25T09:00:17.588Z,15.87
2022-10-25T09:03:25.202Z,15.96
2022-10-25T09:06:37.675Z,16.10
2022-10-25T09:09:50.487Z,16.22
2022-10-25T09:13:01.382Z,16.30
2022-10-25T09:16:14.010Z,16.22
2022-10-25T09:19:20.619Z,16.15
2022-10-25T09:22:28.166Z,16.27
2022-10-25T09:25:35.362Z,16.31
2022-10-25T09:28:51.805Z,16.61
2022-10-25T09:31:59.899Z,16.84
2022-10-25T09:35:04.612Z,16.75
2022-10-25T09:38:13.329Z,16.80
2022-10-25T09:41:21.996Z,17.04
2022-10-25T09:44:37.400Z,16.97
2022-10-25T09:47:47.377Z,17.03
2022-10-25T09:50:54.639Z,16.78
2022-10-25T09:53:58.851Z,16.99
2022-10-25T09:57:01.604Z,17.12
2022-10-25T10:00:05.281Z,17.50
2022-10-25T10:03:13.194Z,17.60
2022-10-25T10:06:20.294Z,17.69
2022-10-25T10:09:24.210Z,17.53
2022-10-25T10:12:32.030Z,16.94
2022-10-25T10:15:39.269Z,16.95
2022-10-25T10:18:44.501Z,16.86
2022-10-25T10:21:49.974Z,16.70
2022-10-25T10:25:01.814Z,16.82
2022-10-25T10:28:04.545Z,17.12
2022-10-25T10:31:08.943Z,17.53
2022-10-25T10:34:27.174Z,17.68
2022-10-25T10:37:32.057Z,17.45
2022-10-25T10:40:34.628Z,17.30
2022-10-25T10:43:37.347Z,17.10
2022-10-25T10:46:45.257Z,17.13
2022-10-25T10:49:49.620Z,16.89
2022-10-25T10:52:59.791Z,16.75
2022-10-25T10:56:05.661Z,16.78
2022-10-25T10:59:27.412Z,17.08
2022-10-25T11:02:39.011Z,17.32
2022-10-25T11:05:54.302Z,17.53
2022-10-25T11:09:17.149Z,17.83
2022-10-25T11:12:20.187Z,17.52
2022-10-25T11:15:22.931Z,17.35
2022-10-25T11:18:33.602Z,17.82
2022-10-25T11:21:55.141Z,17.60
2022-10-25T11:28:42.931Z,17.30
2022-10-25T11:31:57.950Z,17.06
2022-10-25T11:35:11.307Z,17.74
2022-10-25T11:38:24.633Z,18.15
2022-10-25T11:41:37.892Z,18.53
2022-10-25T11:45:02.103Z,19.06
2022-10-25T11:48:26.806Z,18.51
2022-10-25T11:51:40.321Z,18.29
2022-10-25T11:54:50.341Z,18.21
2022-10-25T11:58:05.688Z,18.80
2022-10-25T12:01:25.100Z,18.60
2022-10-25T12:04:40.145Z,18.34
2022-10-25T12:07:48.793Z,18.35
2022-10-25T12:10:57.456Z,18.33
2022-10-25T12:14:02.620Z,18.23
2022-10-25T12:17:09.576Z,17.99
2022-10-25T12:20:21.245Z,17.91
2022-10-25T12:23:27.352Z,17.57
2022-10-25T12:26:34.655Z,17.85
2022-10-25T12:29:42.179Z,18.45
2022-10-25T12:32:52.057Z,18.67
2022-10-25T12:36:01.563Z,18.86
2022-10-25T12:39:12.574Z,18.85
2022-10-25T12:42:20.887Z,18.92
2022-10-25T12:45:55.965Z,18.13
2022-10-25T12:49:12.336Z,17.94
2022-10-25T12:52:29.395Z,17.58
2022-10-25T12:55:43.339Z,17.51
2022-10-25T12:59:00.916Z,17.49
2022-10-25T13:02:19.728Z,17.64
2022-10-25T13:05:42.274Z,17.76
2022-10-25T13:08:45.800Z,17.29
2022-10-25T13:11:52.847Z,17.23
2022-10-25T13:15:00.850Z,17.19
2022-10-25T13:18:05.719Z,17.25
2022-10-25T13:21:10.377Z,17.38
2022-10-25T13:24:33.119Z,17.25
2022-10-25T13:27:37.081Z,17.17
2022-10-25T13:30:41.404Z,17.18
2022-10-25T13:33:44.315Z,17.02
2022-10-25T13:36:48.345Z,17.24
2022-10-25T13:39:55.225Z,17.02
2022-10-25T13:43:04.749Z,17.13
2022-10-25T13:46:12.706Z,17.27
2022-10-25T13:49:36.913Z,16.93
2022-10-25T13:52:46.648Z,17.01
2022-10-25T13:56:04.119Z,17.13
2022-10-25T13:59:36.595Z,17.29
2022-10-25T14:03:04.175Z,17.16
2022-10-25T14:06:28.657Z,16.93
2022-10-25T14:09:36.292Z,16.93
2022-10-25T14:12:44.511Z,16.76
2022-10-25T14:15:55.771Z,16.60
2022-10-25T14:19:04.394Z,16.63
2022-10-25T14:22:15.904Z,16.72
2022-10-25T14:25:23.050Z,16.60
2022-10-25T14:28:27.799Z,16.69
2022-10-25T14:31:30.406Z,16.74
2022-10-25T14:34:34.526Z,16.64
2022-10-25T14:37:43.624Z,16.53
2022-10-25T14:40:51.931Z,16.47
2022-10-25T14:43:55.299Z,16.43
2022-10-25T14:47:00.364Z,16.36
2022-10-25T14:53:16.641Z,16.12
2022-10-25T14:56:28.141Z,16.21
2022-10-25T14:59:40.259Z,16.08
2022-10-25T15:02:45.310Z,16.16
2022-10-25T15:05:52.293Z,16.25
2022-10-25T15:09:23.030Z,16.04
2022-10-25T15:12:24.761Z,15.99
2022-10-25T15:15:34.889Z,16.05
2022-10-25T15:18:39.096Z,15.91
2022-10-25T15:21:44.596Z,15.91
2022-10-25T15:24:48.957Z,15.88
2022-10-25T15:27:54.726Z,15.93
2022-10-25T15:31:04.758Z,15.93
2022-10-25T15:34:07.775Z,15.89
2022-10-25T15:37:13.363Z,15.91
2022-10-25T15:40:17.111Z,15.93
2022-10-25T15:43:19.758Z,15.95
2022-10-25T15:46:31.308Z,16.02
2022-10-25T15:49:34.065Z,16.03
2022-10-25T15:52:37.991Z,15.87
2022-10-25T15:55:40.635Z,15.81
2022-10-25T15:58:43.262Z,15.75
2022-10-25T16:01:49.320Z,15.77
2022-10-25T16:04:52.218Z,15.75
2022-10-25T16:07:56.628Z,15.72
2022-10-25T16:10:59.694Z,15.70
2022-10-25T16:14:03.845Z,15.75
2022-10-25T16:17:06.452Z,15.74
2022-10-25T16:20:18.256Z,15.71
2022-10-25T16:23:23.854Z,15.61
2022-10-25T16:26:30.830Z,15.56
2022-10-25T16:29:33.477Z,15.53
2022-10-25T16:32:36.063Z,15.42
2022-10-25T16:35:38.755Z,15.38
2022-10-25T16:38:42.672Z,15.39
2022-10-25T16:41:46.759Z,15.41
2022-10-25T16:44:49.338Z,15.40
2022-10-25T16:47:51.881Z,15.32
2022-10-25T16:50:54.524Z,15.21
2022-10-25T16:53:59.277Z,15.07
2022-10-25T16:57:01.822Z,15.02
2022-10-25T17:00:05.378Z,15.01
2022-10-25T17:03:07.910Z,15.10
2022-10-25T17:06:28.732Z,15.08
2022-10-25T17:09:34.802Z,14.97
2022-10-25T17:12:43.589Z,14.89
2022-10-25T17:15:46.471Z,14.86
2022-10-25T17:18:49.106Z,14.84
2022-10-25T17:21:51.740Z,14.78
2022-10-25T17:24:55.898Z,14.78
2022-10-25T17:27:58.452Z,14.77
2022-10-25T17:31:01.962Z,14.65
2022-10-25T17:34:05.337Z,14.57
2022-10-25T17:37:07.919Z,14.62
2022-10-25T17:40:14.781Z,14.63
2022-10-25T17:43:17.325Z,14.66
2022-10-25T17:46:23.112Z,14.56
2022-10-25T17:49:25.798Z,14.52
2022-10-25T17:52:28.441Z,14.48
2022-10-25T17:55:33.497Z,14.42
2022-10-25T17:58:36.411Z,14.43
2022-10-25T18:01:40.652Z,14.44
2022-10-25T18:05:01.116Z,14.47
2022-10-25T18:08:07.609Z,14.39
2022-10-25T18:11:12.941Z,14.42
2022-10-25T18:14:15.625Z,14.36
2022-10-25T18:17:18.367Z,14.34
2022-10-25T18:20:22.331Z,14.32
2022-10-25T18:23:24.907Z,14.32
2022-10-25T18:26:29.539Z,14.15
2022-10-25T18:29:34.090Z,13.85
2022-10-25T18:32:36.760Z,13.58
2022-10-25T18:38:47.310Z,13.25
2022-10-25T18:41:54.539Z,13.16
2022-10-25T18:44:57.119Z,13.08
2022-10-25T18:47:59.820Z,12.98
2022-10-25T18:51:07.043Z,12.93
2022-10-25T18:54:11.476Z,12.85
2022-10-25T18:57:15.483Z,12.81
2022-10-25T19:00:19.057Z,12.75
2022-10-25T19:03:21.620Z,12.72
2022-10-25T19:06:24.576Z,12.66
2022-10-25T19:09:27.129Z,12.62
2022-10-25T19:12:31.021Z,12.62
2022-10-25T19:15:33.786Z,12.57
2022-10-25T19:18:38.742Z,12.56
2022-10-25T19:21:43.058Z,12.53
2022-10-25T19:24:45.663Z,12.50
2022-10-25T19:27:49.976Z,12.45
2022-10-25T19:30:52.794Z,12.39
2022-10-25T19:33:58.609Z,12.39
2022-10-25T19:37:04.319Z,12.32
2022-10-25T19:40:09.191Z,12.29
2022-10-25T19:43:14.556Z,12.26
2022-10-25T19:46:18.300Z,12.19
2022-10-25T19:49:21.084Z,12.14
2022-10-25T19:52:23.639Z,12.09
2022-10-25T19:55:26.517Z,12.04
2022-10-25T19:58:30.720Z,11.99
2022-10-25T20:01:33.949Z,12.00
2022-10-25T20:04:36.793Z,12.01
2022-10-25T20:07:39.771Z,12.01
2022-10-25T20:10:42.331Z,12.00
2022-10-25T20:13:46.626Z,11.93
2022-10-25T20:16:49.369Z,11.84
2022-10-25T20:19:52.109Z,11.79
2022-10-25T20:22:54.789Z,11.74
2022-10-25T20:25:57.396Z,11.71
2022-10-25T20:29:04.921Z,11.69
2022-10-25T20:32:07.667Z,11.65
2022-10-25T20:35:10.235Z,11.64
2022-10-25T20:38:13.553Z,11.62
2022-10-25T20:41:18.681Z,11.58
2022-10-25T20:44:22.744Z,11.56
2022-10-25T20:47:25.521Z,11.54
2022-10-25T20:50:29.489Z,11.47
2022-10-25T20:53:32.360Z,11.44
2022-10-25T20:56:36.987Z,11.43
2022-10-25T20:59:41.335Z,11.46
2022-10-25T21:02:44.117Z,11.45
2022-10-25T21:05:46.815Z,11.41
2022-10-25T21:08:49.508Z,11.36
2022-10-25T21:11:52.063Z,11.33
2022-10-25T21:14:56.326Z,11.36
2022-10-25T21:17:59.151Z,11.33
2022-10-25T21:21:03.121Z,11.31
2022-10-25T21:24:06.009Z,11.23
2022-10-25T21:27:12.817Z,11.22
2022-10-25T21:30:17.359Z,11.21
2022-10-25T21:33:20.016Z,11.17
2022-10-25T21:36:22.711Z,11.14
2022-10-25T21:39:25.478Z,11.12
2022-10-25T21:42:31.757Z,11.06
2022-10-25T21:45:35.680Z,11.06
2022-10-25T21:48:39.299Z,11.02
2022-10-25T21:51:42.336Z,10.99
2022-10-25T21:54:45.281Z,10.97
2022-10-25T21:57:50.601Z,10.99
2022-10-25T22:00:59.433Z,11.02
2022-10-25T22:04:02.263Z,11.01
2022-10-25T22:07:04.874Z,10.96
2022-10-25T22:10:08.056Z,10.90
2022-10-25T22:13:11.010Z,10.88
2022-10-25T22:16:17.877Z,10.90
2022-10-25T22:19:46.838Z,10.97
2022-10-25T22:22:49.753Z,10.85
2022-10-25T22:25:52.722Z,10.76
2022-10-25T22:28:57.251Z,10.76
2022-10-25T22:32:01.356Z,10.78
2022-10-25T22:35:03.912Z,10.78
2022-10-25T22:38:06.713Z,10.78
2022-10-25T22:41:11.735Z,10.79
2022-10-25T22:44:14.482Z,10.79
2022-10-25T22:47:18.547Z,10.77
2022-10-25T22:50:21.125Z,10.71
2022-10-25T22:53:23.949Z,10.66
2022-10-25T22:56:27.844Z,10.68
2022-10-25T22:59:30.569Z,10.68
2022-10-25T23:02:34.499Z,10.67
2022-10-25T23:05:37.188Z,10.66
2022-10-25T23:08:39.967Z,10.63
2022-10-25T23:11:43.062Z,10.60
2022-10-25T23:14:45.732Z,10.59
2022-10-25T23:17:49.661Z,10.60
2022-10-25T23:20:53.979Z,10.57
2022-10-25T23:23:57.667Z,10.57
2022-10-25T23:27:00.395Z,10.57
2022-10-25T23:30:03.344Z,10.56
2022-10-25T23:33:08.008Z,10.58
2022-10-25T23:36:13.691Z,10.55
2022-10-25T23:39:16.261Z,10.54
2022-10-25T23:42:18.931Z,10.52
2022-10-25T23:45:21.579Z,10.51
2022-10-25T23:48:25.877Z,10.50
2022-10-25T23:51:28.553Z,10.51
2022-10-25T23:54:31.123Z,10.47
2022-10-25T23:57:33.909Z,10.43
